Etusivu
METAR-TAF:

METAR-TAF

Lentoasemat :

Pagosa Springs, Colorado, Yhdysvallat

Leveyspiiri: 37-17-17N, Pituuspiiri: 107-03-18W, korkeus merenpinnasta: 2334 m

Tämänhetkinen sää

Tämä raportti tehtiin 16 minuuttia sitten, kello 22.55 UTC
Tuuli 4 kn pohjoisesta
Lämpötila 26°C
Kosteus 23%
Ilmanpaine 1029 hPa
Näkyvyys: 16.1 km
selkeää
ukkosta näköpiirissä

METAR: KPSO 172255Z AUTO 01004KT 10SM VCTS CLR 26/03 A3038 RMK AO2 LTG DSNT SE AND S T02550032

Aika: 17:11 (23:11 UTC)


TAF: puuttuu

Säähavainnot ja -ennusteet yli 4000 lentoasemalta (METAR- ja TAF-raportit).

Käytössä olevat sääasemat on merkitty karttaan keltaisilla ja punaisilla pisteillä.

Aseta hiiri pisteen päälle nähdäksesi sääaseman nimen.

Klikkaa sitten nähdäksesi säähavainnot ja -ennusteet.

Kartan vaihtaminen: klikkaa mustalla rastilla varustettuja vihreitä pisteitä, niin voit zoomata sisään; viivalla varustettua vihreää pistettä, niin voit zoomata ulos tai vihreitä nuolia, niin pääset viereisille kartoille.


METAR-TAF: